Time;durP1;ratioP1;P1;durP2;ratioP2;P2;SDS_P1;SDS_P2;PMS_P1;PMS_P2;Temp;Humidity;BMP_temperature;BMP_pressure;BME280_temperature;BME280_humidity;BME280_pressure;Samples;Min_cycle;Max_cycle;Signal;HPM_P1;HPM_P2
2022/03/29 00:00:41;;;;;;;0.80;0.28;;;;;;;20.31;29.06;96857.81;5051330;28;20028;-73
2022/03/29 00:03:08;;;;;;;1.00;0.40;;;;;;;20.32;28.65;96856.75;5051165;28;20037;-75
2022/03/29 00:05:34;;;;;;;1.55;0.70;;;;;;;20.33;28.40;96858.38;5051059;28;20048;-71
2022/03/29 00:08:00;;;;;;;1.23;0.47;;;;;;;20.35;28.64;96839.31;5051360;28;20404;-73
2022/03/29 00:10:26;;;;;;;1.52;0.40;;;;;;;20.35;28.65;96858.94;5051211;28;20048;-73
2022/03/29 00:12:53;;;;;;;1.27;0.30;;;;;;;20.38;28.53;96866.47;5051006;28;20522;-68
2022/03/29 00:15:20;;;;;;;0.88;0.40;;;;;;;20.39;28.53;96870.00;5050434;28;20029;-69
2022/03/29 00:17:47;;;;;;;4.65;0.30;;;;;;;20.37;28.47;96864.06;5046871;28;20039;-69
2022/03/29 00:20:16;;;;;;;1.45;0.30;;;;;;;20.41;28.49;96865.19;5051329;28;20113;-69
2022/03/29 00:22:41;;;;;;;1.00;0.30;;;;;;;20.40;28.63;96864.34;5050539;28;20049;-69
2022/03/29 00:25:08;;;;;;;1.05;0.40;;;;;;;20.40;28.21;96874.28;5051258;28;20155;-68
2022/03/29 00:27:35;;;;;;;0.73;0.30;;;;;;;20.39;28.15;96857.34;5052047;28;20113;-69
2022/03/29 00:30:02;;;;;;;0.85;0.60;;;;;;;20.41;28.61;96865.19;5054926;28;20140;-68
2022/03/29 00:32:27;;;;;;;0.98;0.40;;;;;;;20.43;28.60;96868.44;5053657;28;20542;-67
2022/03/29 00:34:53;;;;;;;1.10;0.40;;;;;;;20.39;28.37;96860.03;5054596;28;20024;-71
2022/03/29 00:37:18;;;;;;;1.63;0.70;;;;;;;20.37;28.11;96867.53;5054761;28;20043;-70
2022/03/29 00:39:44;;;;;;;1.05;0.40;;;;;;;20.40;28.38;96869.72;5054344;28;20574;-71
2022/03/29 00:42:09;;;;;;;1.38;0.60;;;;;;;20.43;28.38;96863.06;5054102;28;20044;-70
2022/03/29 00:44:36;;;;;;;0.68;0.35;;;;;;;20.46;28.63;96872.47;5054509;28;20041;-69
2022/03/29 00:47:02;;;;;;;0.98;0.43;;;;;;;20.46;28.64;96864.44;5054244;28;20048;-69
2022/03/29 00:49:28;;;;;;;1.00;0.50;;;;;;;20.47;28.65;96853.41;5050963;28;20523;-73
2022/03/29 00:51:58;;;;;;;0.82;0.30;;;;;;;20.47;28.71;96858.78;5045448;28;20040;-68
2022/03/29 00:54:32;;;;;;;0.60;0.20;;;;;;;20.48;28.56;96868.47;5053759;28;20025;-70
2022/03/29 00:57:03;;;;;;;1.00;0.30;;;;;;;20.49;28.40;96870.09;5054085;28;20424;-70
2022/03/29 00:59:29;;;;;;;1.42;0.38;;;;;;;20.48;28.52;96859.63;5050827;28;20427;-69
2022/03/29 01:01:58;;;;;;;0.93;0.30;;;;;;;20.48;28.42;96851.56;5054043;28;20403;-72
2022/03/29 01:04:27;;;;;;;0.47;0.30;;;;;;;20.50;28.57;96855.59;5054132;28;20032;-68
2022/03/29 01:06:58;;;;;;;0.80;0.30;;;;;;;20.50;28.18;96858.28;5049908;28;20086;-68
2022/03/29 01:09:29;;;;;;;0.47;0.20;;;;;;;20.51;27.74;96861.81;5046647;28;20037;-67
2022/03/29 01:11:55;;;;;;;1.47;0.40;;;;;;;20.50;28.58;96858.28;5053740;28;20041;-67
2022/03/29 01:14:22;;;;;;;0.80;0.30;;;;;;;20.52;28.12;96866.09;5053593;28;20263;-68
2022/03/29 01:19:34;;;;;;;1.48;0.57;;;;;;;20.49;27.81;96864.72;5053101;28;20529;-68
2022/03/29 01:22:09;;;;;;;1.13;0.38;;;;;;;20.49;27.61;96863.94;5053397;28;20515;-68
2022/03/29 01:24:36;;;;;;;0.57;0.22;;;;;;;20.48;27.86;96859.63;5054039;28;20040;-69
2022/03/29 01:27:06;;;;;;;3.45;0.32;;;;;;;20.48;28.11;96870.38;5053113;28;20071;-67
2022/03/29 01:29:33;;;;;;;0.80;0.50;;;;;;;20.46;27.76;96869.78;5053703;28;20119;-69
2022/03/29 01:32:02;;;;;;;0.88;0.30;;;;;;;20.40;27.39;96868.94;5053064;28;20380;-70
2022/03/29 01:34:28;;;;;;;1.52;0.40;;;;;;;20.39;28.28;96870.00;5053912;28;20103;-68
2022/03/29 01:36:54;;;;;;;0.70;0.35;;;;;;;20.40;27.72;96883.16;5053368;28;20484;-69
2022/03/29 01:39:20;;;;;;;0.30;0.20;;;;;;;20.39;27.90;96881.53;5053227;28;20108;-69
2022/03/29 01:41:48;;;;;;;1.05;0.32;;;;;;;20.41;28.08;96883.97;5053017;28;20043;-70
2022/03/29 01:44:14;;;;;;;1.60;0.45;;;;;;;20.43;27.82;96884.53;5050623;28;20071;-69
2022/03/29 01:46:39;;;;;;;1.67;0.28;;;;;;;20.42;27.92;96888.28;5053287;28;20078;-69
2022/03/29 01:49:05;;;;;;;0.47;0.32;;;;;;;20.43;28.06;96896.09;5053597;28;20059;-69
2022/03/29 01:51:31;;;;;;;0.55;0.32;;;;;;;20.44;27.67;96904.94;5034781;28;20044;-69
2022/03/29 01:54:00;;;;;;;1.73;0.45;;;;;;;20.45;27.58;96889.66;5053642;28;20028;-70
2022/03/29 01:56:31;;;;;;;1.85;0.40;;;;;;;20.42;27.47;96885.59;5053179;28;20033;-70
2022/03/29 01:58:57;;;;;;;0.85;0.30;;;;;;;20.38;27.70;96887.97;5053162;28;20028;-70
2022/03/29 02:01:23;;;;;;;0.55;0.30;;;;;;;20.39;27.58;96889.59;5052946;28;20041;-69
2022/03/29 02:03:48;;;;;;;0.60;0.30;;;;;;;20.42;28.07;96888.28;5052824;28;20040;-70
2022/03/29 02:06:14;;;;;;;1.08;0.40;;;;;;;20.42;27.97;96894.47;5052165;28;20519;-69
2022/03/29 02:08:40;;;;;;;1.50;0.30;;;;;;;20.47;28.00;96895.59;5052463;28;20484;-70
2022/03/29 02:11:07;;;;;;;0.52;0.32;;;;;;;20.47;27.74;96890.22;5049132;28;20025;-70
2022/03/29 02:13:33;;;;;;;1.58;0.73;;;;;;;20.46;27.79;96896.66;5052654;28;20037;-70
2022/03/29 02:15:59;;;;;;;0.98;0.50;;;;;;;20.47;27.95;96900.97;5052071;28;20047;-70
2022/03/29 02:18:24;;;;;;;0.22;0.20;;;;;;;20.50;27.87;96897.78;5052204;28;20036;-70
2022/03/29 02:20:50;;;;;;;0.77;0.47;;;;;;;20.51;28.07;96897.53;5052589;28;20097;-69
2022/03/29 02:23:15;;;;;;;1.45;0.40;;;;;;;20.54;28.22;96902.41;5052285;28;20092;-69
2022/03/29 02:25:42;;;;;;;1.35;0.32;;;;;;;20.59;28.21;96890.91;5033863;28;20674;-69
2022/03/29 02:28:08;;;;;;;1.13;0.32;;;;;;;20.63;28.23;96905.47;5052215;28;20033;-69
2022/03/29 02:30:35;;;;;;;1.48;0.22;;;;;;;20.63;28.61;96901.94;5051343;28;20407;-69
2022/03/29 02:33:05;;;;;;;1.27;0.35;;;;;;;20.62;28.39;96901.16;5051161;28;20179;-69
2022/03/29 02:35:30;;;;;;;0.65;0.17;;;;;;;20.65;28.20;96900.66;5050910;28;20056;-69
2022/03/29 02:37:56;;;;;;;1.42;0.40;;;;;;;20.65;28.16;96911.41;5050912;28;20113;-69
2022/03/29 02:40:22;;;;;;;0.50;0.20;;;;;;;20.64;27.45;96907.09;5049829;28;20487;-69
2022/03/29 02:42:49;;;;;;;0.60;0.40;;;;;;;20.63;27.62;96896.56;5052024;28;20032;-69
2022/03/29 02:45:16;;;;;;;0.90;0.25;;;;;;;20.66;27.90;96901.44;5052123;28;20387;-69
2022/03/29 02:47:47;;;;;;;0.88;0.30;;;;;;;20.64;27.47;96907.09;5051893;28;20044;-70
2022/03/29 02:50:14;;;;;;;0.60;0.30;;;;;;;20.59;27.08;96910.50;5034319;28;20021;-69
2022/03/29 02:52:57;;;;;;;0.82;0.40;;;;;;;20.63;27.83;96921.59;5052650;28;20028;-70
2022/03/29 02:55:28;;;;;;;0.60;0.40;;;;;;;20.66;28.03;96907.63;5052913;28;20029;-70
2022/03/29 02:57:54;;;;;;;0.68;0.15;;;;;;;20.68;27.89;96910.88;5051739;28;20504;-70
2022/03/29 03:00:20;;;;;;;1.40;0.45;;;;;;;20.73;27.58;96919.00;5047525;28;20036;-70
2022/03/29 03:02:48;;;;;;;0.40;0.20;;;;;;;20.73;27.74;96912.84;5052773;28;20039;-70
2022/03/29 03:05:13;;;;;;;1.08;0.35;;;;;;;20.70;27.48;96916.81;5052317;28;20083;-70
2022/03/29 03:07:40;;;;;;;0.88;0.35;;;;;;;20.68;27.20;96918.13;5051645;28;20037;-70
2022/03/29 03:10:06;;;;;;;0.90;0.45;;;;;;;20.65;27.42;96908.72;5052581;28;20487;-70
2022/03/29 03:12:39;;;;;;;0.28;0.20;;;;;;;20.62;27.38;96903.84;5051843;28;20544;-70
2022/03/29 03:15:09;;;;;;;1.08;0.50;;;;;;;20.65;27.29;96914.09;5051989;28;20559;-71
2022/03/29 03:17:34;;;;;;;2.38;0.43;;;;;;;20.65;27.12;96924.00;5033618;28;20583;-71
2022/03/29 03:20:00;;;;;;;1.23;0.40;;;;;;;20.65;27.44;96914.09;5052279;28;20123;-70
2022/03/29 03:22:26;;;;;;;1.05;0.30;;;;;;;20.64;27.99;96919.69;5052093;28;20072;-70
2022/03/29 03:24:52;;;;;;;1.02;0.43;;;;;;;20.71;27.61;96925.72;5051641;28;20408;-70
2022/03/29 03:27:18;;;;;;;0.70;0.30;;;;;;;20.71;28.03;96915.75;5052278;28;20040;-71
2022/03/29 03:29:47;;;;;;;0.57;0.40;;;;;;;20.73;27.97;96927.06;5051612;28;20044;-70
2022/03/29 03:32:13;;;;;;;0.82;0.40;;;;;;;20.76;27.95;96924.97;5051365;28;20467;-70
2022/03/29 03:34:39;;;;;;;0.93;0.60;;;;;;;20.77;27.61;96926.59;5052359;28;20438;-71
2022/03/29 03:37:05;;;;;;;3.03;0.47;;;;;;;20.81;27.57;96935.78;5052131;28;20029;-71
2022/03/29 03:39:35;;;;;;;0.63;0.30;;;;;;;20.78;27.96;96934.41;5051717;28;20041;-71
2022/03/29 03:42:01;;;;;;;0.80;0.30;;;;;;;20.79;27.65;96938.72;5052323;28;20044;-71
2022/03/29 03:44:27;;;;;;;1.08;0.40;;;;;;;20.78;27.64;96949.72;5052226;28;20071;-71
2022/03/29 03:46:53;;;;;;;1.02;0.45;;;;;;;20.80;27.16;96956.47;5051468;28;20123;-70
2022/03/29 03:49:19;;;;;;;1.13;0.52;;;;;;;20.80;27.31;96959.16;5035423;28;20059;-70
2022/03/29 03:51:44;;;;;;;1.60;0.57;;;;;;;20.79;27.11;96951.34;5014446;28;20033;-71
2022/03/29 03:54:10;;;;;;;0.45;0.30;;;;;;;20.86;27.50;96954.66;5034529;28;20026;-70
2022/03/29 03:56:35;;;;;;;0.95;0.60;;;;;;;20.94;27.07;96961.47;5052088;28;20373;-70
2022/03/29 03:59:01;;;;;;;1.35;0.68;;;;;;;21.01;26.91;96970.94;5050718;28;20079;-70
2022/03/29 04:01:27;;;;;;;1.38;0.70;;;;;;;21.08;27.04;96964.59;5051836;28;20033;-70
2022/03/29 04:03:52;;;;;;;1.13;0.60;;;;;;;21.15;26.88;96962.50;5055619;28;20036;-70
2022/03/29 04:06:18;;;;;;;1.02;0.50;;;;;;;21.17;27.20;96971.13;5055330;28;20047;-71
2022/03/29 04:08:43;;;;;;;1.50;0.50;;;;;;;21.22;27.07;96979.25;5055407;28;20036;-70
2022/03/29 04:11:09;;;;;;;1.38;0.50;;;;;;;21.24;26.90;96974.44;5055840;28;20029;-71
2022/03/29 04:13:34;;;;;;;1.77;0.68;;;;;;;21.22;26.38;96964.97;5054648;28;20033;-71
2022/03/29 04:16:01;;;;;;;1.77;0.90;;;;;;;21.19;26.40;96972.47;5039800;28;20033;-71
2022/03/29 04:18:26;;;;;;;1.30;0.40;;;;;;;21.18;26.75;96981.63;5035495;28;20056;-70
2022/03/29 04:20:53;;;;;;;2.00;0.70;;;;;;;21.19;26.94;96977.88;5050716;28;20060;-70
2022/03/29 04:23:19;;;;;;;1.77;0.57;;;;;;;21.20;26.85;96981.38;5054168;28;20057;-71
2022/03/29 04:25:44;;;;;;;0.47;0.30;;;;;;;21.17;27.33;96981.88;5055950;28;20048;-71
2022/03/29 04:28:10;;;;;;;2.17;0.80;;;;;;;21.16;26.99;96993.69;5054664;28;20036;-71
2022/03/29 04:30:35;;;;;;;1.40;0.82;;;;;;;21.14;26.54;96993.13;5055773;28;20033;-71
2022/03/29 04:33:01;;;;;;;1.73;0.95;;;;;;;21.11;26.62;96994.47;5054556;28;20103;-70
2022/03/29 04:35:27;;;;;;;3.30;0.70;;;;;;;21.10;26.09;96994.72;5055208;28;20028;-70
2022/03/29 04:37:53;;;;;;;2.10;0.95;;;;;;;21.08;26.51;97002.22;5046660;28;20544;-70
2022/03/29 04:40:20;;;;;;;1.92;0.75;;;;;;;21.06;26.76;96998.97;5035094;28;20492;-70
2022/03/29 04:42:47;;;;;;;0.93;0.38;;;;;;;21.07;27.14;97001.38;5045455;28;20032;-70
2022/03/29 04:45:14;;;;;;;1.42;0.70;;;;;;;21.09;26.63;97001.97;5054175;28;20033;-70
2022/03/29 04:47:40;;;;;;;2.63;0.85;;;;;;;21.08;26.67;97011.09;5053836;28;20048;-70
2022/03/29 04:50:07;;;;;;;1.30;0.70;;;;;;;21.06;26.55;97007.81;5055120;28;20037;-70
2022/03/29 04:52:33;;;;;;;1.20;0.90;;;;;;;21.04;26.46;97013.47;5054290;28;20036;-71
2022/03/29 04:54:58;;;;;;;2.00;0.65;;;;;;;21.00;26.69;97009.66;5054662;28;20033;-71
2022/03/29 04:57:24;;;;;;;2.45;0.95;;;;;;;20.98;26.33;97003.72;5054466;28;20134;-70
2022/03/29 04:59:49;;;;;;;0.88;0.63;;;;;;;20.96;26.67;97007.72;5054800;28;20033;-71
2022/03/29 05:02:15;;;;;;;3.05;0.98;;;;;;;20.94;26.61;97010.66;5054322;28;20098;-71
2022/03/29 05:04:40;;;;;;;3.38;1.00;;;;;;;20.94;26.33;97010.66;5036912;28;20468;-71
2022/03/29 05:07:06;;;;;;;1.35;0.65;;;;;;;20.94;26.71;97016.03;5054661;28;20499;-71
2022/03/29 05:09:31;;;;;;;1.13;0.70;;;;;;;20.94;26.57;97007.16;5054751;28;20441;-71
2022/03/29 05:11:59;;;;;;;2.42;0.80;;;;;;;20.95;26.89;97017.66;5053985;28;20051;-70
2022/03/29 05:14:25;;;;;;;1.42;0.82;;;;;;;20.97;26.37;97015.53;5053451;28;20037;-72
2022/03/29 05:16:51;;;;;;;2.00;0.88;;;;;;;20.97;26.49;97009.34;5054138;28;20044;-71
2022/03/29 05:19:16;;;;;;;1.17;0.63;;;;;;;20.96;26.79;97019.28;5054284;28;20044;-71
2022/03/29 05:21:42;;;;;;;1.65;0.63;;;;;;;20.98;26.93;97021.72;5053829;28;20067;-71
2022/03/29 05:24:08;;;;;;;1.20;0.68;;;;;;;21.06;26.85;97026.66;5054737;28;20033;-72
2022/03/29 05:26:34;;;;;;;1.60;0.70;;;;;;;21.09;27.16;97017.28;5054014;28;20040;-70
2022/03/29 05:29:00;;;;;;;1.65;0.57;;;;;;;21.13;27.29;97004.94;5054091;28;20511;-70
2022/03/29 05:31:25;;;;;;;1.35;0.77;;;;;;;21.17;27.11;97023.03;5053856;28;20029;-69
2022/03/29 05:33:51;;;;;;;1.85;0.60;;;;;;;21.21;26.91;97034.09;5053655;28;20071;-71
2022/03/29 05:36:16;;;;;;;2.38;0.60;;;;;;;21.24;27.53;97025.53;5053560;28;20041;-70
2022/03/29 05:38:48;;;;;;;1.98;0.80;;;;;;;21.29;27.03;97016.69;5035972;28;20028;-69
2022/03/29 05:41:15;;;;;;;2.53;1.20;;;;;;;21.30;27.09;96996.81;5053857;28;20028;-71
2022/03/29 05:43:41;;;;;;;0.70;0.40;;;;;;;21.38;27.52;97028.63;5053356;28;20035;-70
2022/03/29 05:48:55;;;;;;;0.63;0.43;;;;;;;21.52;27.41;97028.22;5053874;28;20407;-70
2022/03/29 05:51:24;;;;;;;1.80;0.57;;;;;;;21.58;27.62;97019.94;5053933;28;20439;-70
2022/03/29 05:53:51;;;;;;;1.30;0.57;;;;;;;21.62;27.63;97041.81;5053164;28;20032;-70
2022/03/29 05:56:17;;;;;;;3.65;0.65;;;;;;;21.61;27.37;97035.63;5052958;28;20025;-69
2022/03/29 05:58:43;;;;;;;2.67;0.60;;;;;;;21.63;27.49;97044.25;5052233;28;20037;-71
2022/03/29 06:01:08;;;;;;;1.45;0.95;;;;;;;21.64;26.54;97077.34;5053509;28;20112;-70
2022/03/29 06:03:34;;;;;;;1.00;0.55;;;;;;;21.52;26.16;97087.41;5051823;28;20041;-70
2022/03/29 06:05:59;;;;;;;1.40;0.30;;;;;;;21.36;26.03;97091.81;5048815;28;20442;-71
2022/03/29 06:08:25;;;;;;;0.60;0.32;;;;;;;21.22;26.03;97096.75;5052811;28;20099;-71
2022/03/29 06:10:51;;;;;;;1.17;0.40;;;;;;;21.13;26.30;97101.75;5053897;28;20041;-71
2022/03/29 06:13:16;;;;;;;0.52;0.25;;;;;;;21.06;26.13;97119.94;5052653;28;20032;-71
2022/03/29 06:15:41;;;;;;;0.93;0.50;;;;;;;20.95;26.36;97122.50;5053351;28;20040;-71
2022/03/29 06:18:07;;;;;;;0.43;0.22;;;;;;;20.91;26.37;97125.91;5053221;28;20120;-71
2022/03/29 06:20:33;;;;;;;0.93;0.45;;;;;;;20.90;26.34;97125.09;5018882;28;20036;-71
2022/03/29 06:22:58;;;;;;;1.48;0.40;;;;;;;20.91;26.42;97131.28;5052292;28;20060;-71
2022/03/29 06:25:25;;;;;;;0.70;0.50;;;;;;;20.88;26.31;97133.41;5052548;28;20144;-71
2022/03/29 06:27:50;;;;;;;2.47;0.40;;;;;;;20.91;26.21;97142.88;5052766;28;20041;-71
2022/03/29 06:30:16;;;;;;;2.80;0.73;;;;;;;20.93;26.43;97143.44;5052544;28;20040;-71
2022/03/29 06:32:49;;;;;;;2.60;0.40;;;;;;;20.96;26.32;97153.66;5052309;28;20033;-71
2022/03/29 06:35:18;;;;;;;0.80;0.50;;;;;;;20.93;25.99;97156.88;5053165;28;20025;-71
2022/03/29 06:37:44;;;;;;;1.48;0.80;;;;;;;20.89;26.32;97161.09;5052743;28;20518;-72
2022/03/29 06:40:10;;;;;;;1.88;0.50;;;;;;;20.86;26.12;97165.09;5052769;28;20033;-71
2022/03/29 06:42:36;;;;;;;1.08;0.65;;;;;;;20.85;26.04;97165.34;5047643;28;20033;-71
2022/03/29 06:45:02;;;;;;;0.95;0.63;;;;;;;20.85;25.75;97170.72;5033044;28;20038;-71
2022/03/29 06:47:28;;;;;;;0.75;0.40;;;;;;;20.86;26.26;97177.72;5042924;28;20036;-71
2022/03/29 06:49:53;;;;;;;0.77;0.30;;;;;;;20.88;26.09;97183.66;5052682;28;20032;-71
2022/03/29 06:52:19;;;;;;;0.40;0.35;;;;;;;20.92;26.33;97176.75;5053083;28;20028;-70
2022/03/29 06:54:44;;;;;;;0.95;0.45;;;;;;;20.98;26.30;97183.00;5052473;28;20051;-71
2022/03/29 06:57:10;;;;;;;0.30;0.30;;;;;;;21.05;25.77;97170.19;5052730;28;20504;-71
2022/03/29 06:59:35;;;;;;;0.57;0.40;;;;;;;21.09;26.05;97165.16;5052199;28;20045;-70
2022/03/29 07:02:01;;;;;;;1.80;0.40;;;;;;;21.13;25.99;97179.72;5033725;28;20040;-71
2022/03/29 07:04:26;;;;;;;1.13;0.40;;;;;;;21.19;26.06;97184.91;5052202;28;20618;-71
2022/03/29 07:06:52;;;;;;;1.17;0.50;;;;;;;21.23;26.10;97176.34;5052316;28;20032;-71
2022/03/29 07:12:01;;;;;;;2.53;0.60;;;;;;;21.37;25.85;97203.72;5051764;28;20039;-70
2022/03/29 07:14:27;;;;;;;1.52;0.55;;;;;;;21.43;25.75;97197.34;5048334;28;20033;-70
2022/03/29 07:16:52;;;;;;;1.33;0.60;;;;;;;21.48;25.32;97200.09;5038094;28;20033;-70
2022/03/29 07:19:18;;;;;;;0.93;0.55;;;;;;;21.49;25.25;97210.59;5052506;28;20032;-70
2022/03/29 07:21:44;;;;;;;2.47;0.45;;;;;;;21.49;25.11;97217.88;5052577;28;20496;-72
2022/03/29 07:24:11;;;;;;;2.80;0.57;;;;;;;21.46;25.61;97211.13;5051916;28;20032;-71
2022/03/29 07:26:37;;;;;;;0.70;0.40;;;;;;;21.47;25.54;97206.53;5052465;28;20032;-70
2022/03/29 07:29:04;;;;;;;2.97;0.60;;;;;;;21.46;25.36;97216.50;5052165;28;20033;-70
2022/03/29 07:31:30;;;;;;;1.00;0.52;;;;;;;21.47;25.41;97215.41;5052137;28;20039;-70
2022/03/29 07:33:56;;;;;;;2.70;0.65;;;;;;;21.48;25.35;97217.03;5052077;28;20033;-70
2022/03/29 07:36:21;;;;;;;0.70;0.47;;;;;;;21.48;25.48;97218.94;5053564;28;20056;-70
2022/03/29 07:38:47;;;;;;;0.65;0.52;;;;;;;21.47;25.51;97220.78;5056557;28;20056;-70
2022/03/29 07:41:12;;;;;;;0.95;0.52;;;;;;;21.46;25.38;97224.56;5056675;28;20036;-71
2022/03/29 07:43:38;;;;;;;1.40;0.60;;;;;;;21.44;25.39;97228.56;5049934;28;20400;-70
2022/03/29 07:46:04;;;;;;;1.60;0.57;;;;;;;21.44;25.36;97232.06;5056380;28;20049;-70
2022/03/29 07:48:29;;;;;;;2.13;0.70;;;;;;;21.44;25.11;97236.63;5056093;28;20425;-70
2022/03/29 07:50:55;;;;;;;0.80;0.50;;;;;;;21.42;25.00;97228.81;5056296;28;20036;-70
2022/03/29 07:53:22;;;;;;;1.73;0.65;;;;;;;21.46;24.91;97239.88;5055683;28;20254;-70
2022/03/29 07:55:48;;;;;;;2.92;0.60;;;;;;;21.44;25.17;97232.06;5055849;28;20123;-71
2022/03/29 07:58:14;;;;;;;2.88;0.85;;;;;;;21.50;25.24;97249.09;5055724;28;20041;-70
2022/03/29 08:00:40;;;;;;;0.80;0.40;;;;;;;21.52;24.93;97240.75;5054681;28;20098;-70
2022/03/29 08:03:21;;;;;;;1.25;0.77;;;;;;;21.54;24.89;97247.53;5055680;28;20111;-70
2022/03/29 08:05:48;;;;;;;0.88;0.60;;;;;;;21.55;24.71;97259.09;5036423;28;20044;-71
2022/03/29 08:08:15;;;;;;;6.15;0.70;;;;;;;21.55;25.12;97262.59;5052246;28;20041;-70
2022/03/29 08:10:42;;;;;;;1.15;0.63;;;;;;;21.56;25.03;97261.53;5056052;28;20041;-70
2022/03/29 08:13:08;;;;;;;0.98;0.70;;;;;;;21.59;24.74;97274.50;5055021;28;20037;-70
2022/03/29 08:15:35;;;;;;;1.15;0.55;;;;;;;21.58;24.64;97278.25;5043572;28;20094;-70
2022/03/29 08:18:01;;;;;;;0.60;0.38;;;;;;;21.52;24.80;97271.19;5044530;28;20380;-70
2022/03/29 08:20:27;;;;;;;1.63;0.47;;;;;;;21.49;25.00;97285.13;5055513;28;20115;-70
2022/03/29 08:22:55;;;;;;;1.08;0.47;;;;;;;21.48;24.95;97288.88;5054937;28;20061;-70
2022/03/29 08:25:21;;;;;;;0.32;0.30;;;;;;;21.44;24.58;97285.03;5055119;28;20120;-70
2022/03/29 08:27:48;;;;;;;1.30;0.52;;;;;;;21.45;24.54;97295.59;5054742;28;20115;-70
2022/03/29 08:30:15;;;;;;;2.10;0.68;;;;;;;21.46;24.55;97299.91;5055316;28;20029;-70
2022/03/29 08:32:41;;;;;;;1.08;0.57;;;;;;;21.49;24.34;97298.59;5054421;28;20121;-70
2022/03/29 08:35:09;;;;;;;1.63;0.60;;;;;;;21.52;24.45;97298.09;5055001;28;20063;-69
2022/03/29 08:37:37;;;;;;;0.88;0.60;;;;;;;21.55;24.57;97300.28;5054726;28;20480;-70
2022/03/29 08:40:13;;;;;;;0.57;0.50;;;;;;;21.56;24.47;97301.09;5054819;28;20036;-70
2022/03/29 08:42:43;;;;;;;0.60;0.50;;;;;;;21.54;24.42;97304.06;5054667;28;20040;-70
2022/03/29 08:45:11;;;;;;;0.82;0.55;;;;;;;21.50;24.48;97303.69;5055559;28;20032;-70
2022/03/29 08:47:37;;;;;;;1.05;0.60;;;;;;;21.49;24.37;97310.16;5053329;28;20029;-71
2022/03/29 08:50:05;;;;;;;2.35;0.63;;;;;;;21.48;24.44;97313.09;5054744;28;20036;-72
2022/03/29 08:52:32;;;;;;;1.35;0.50;;;;;;;21.48;24.59;97313.91;5055049;28;20123;-72
2022/03/29 08:54:58;;;;;;;1.48;0.75;;;;;;;21.49;24.43;97322.78;5054602;28;20039;-72
2022/03/29 08:57:23;;;;;;;2.83;0.80;;;;;;;21.46;24.29;97318.72;5053602;28;20032;-71
2022/03/29 08:59:49;;;;;;;0.80;0.60;;;;;;;21.43;24.13;97327.28;5055050;28;20055;-71
2022/03/29 09:02:16;;;;;;;1.55;0.75;;;;;;;21.41;24.44;97329.41;5053229;28;20439;-71
2022/03/29 09:04:43;;;;;;;0.98;0.60;;;;;;;21.41;24.99;97329.41;5049161;28;20032;-71
2022/03/29 09:07:09;;;;;;;0.93;0.70;;;;;;;21.44;24.52;97328.91;5054110;28;20044;-73
2022/03/29 09:09:41;;;;;;;1.17;0.70;;;;;;;21.46;24.62;97325.97;5053942;28;20433;-70
2022/03/29 09:12:13;;;;;;;8.05;0.90;;;;;;;21.47;25.03;97333.78;5052582;28;20037;-69
2022/03/29 09:14:58;;;;;;;3.30;0.70;;;;;;;21.44;25.71;97338.84;5053348;28;20033;-67
2022/03/29 09:17:25;;;;;;;4.32;0.75;;;;;;;21.45;25.44;97337.78;5052976;28;20033;-68
2022/03/29 09:19:51;;;;;;;1.35;0.70;;;;;;;21.44;25.33;97342.38;5053152;28;20120;-68
2022/03/29 09:22:45;;;;;;;3.45;0.80;;;;;;;21.42;25.01;97349.88;5053916;28;20079;-67
2022/03/29 09:25:22;;;;;;;1.23;0.63;;;;;;;21.39;24.90;97353.03;5054253;28;20079;-68
2022/03/29 09:27:50;;;;;;;1.55;0.73;;;;;;;21.37;25.03;97354.34;5053149;28;20037;-67
2022/03/29 09:30:16;;;;;;;1.30;0.70;;;;;;;21.37;24.70;97360.53;5051966;28;20048;-70
2022/03/29 09:32:57;;;;;;;3.67;0.73;;;;;;;21.37;24.40;97370.50;5051113;28;20041;-71
2022/03/29 09:35:24;;;;;;;0.90;0.68;;;;;;;21.33;24.54;97368.28;5051761;28;20032;-67
2022/03/29 09:37:50;;;;;;;0.52;0.50;;;;;;;21.33;24.64;97373.66;5053264;28;20519;-68
2022/03/29 09:40:16;;;;;;;1.25;0.70;;;;;;;21.35;24.66;97373.41;5052254;28;20032;-66
2022/03/29 09:42:58;;;;;;;1.30;0.77;;;;;;;21.34;24.64;97369.91;5048366;28;20033;-65
2022/03/29 09:45:43;;;;;;;2.25;0.70;;;;;;;21.31;24.60;97356.94;5042620;28;20144;-67
2022/03/29 09:48:39;;;;;;;1.45;0.80;;;;;;;21.30;24.83;97349.13;5052817;28;20090;-68
2022/03/29 09:51:08;;;;;;;2.13;1.00;;;;;;;21.37;24.66;97371.28;5033553;28;20033;-69
2022/03/29 09:54:01;;;;;;;1.23;0.73;;;;;;;21.33;24.46;97370.16;5053710;28;20550;-69
2022/03/29 09:56:30;;;;;;;0.88;0.50;;;;;;;21.35;24.75;97378.78;5050731;28;20041;-68
2022/03/29 09:59:07;;;;;;;1.58;0.70;;;;;;;21.38;24.60;97378.31;5053044;28;20033;-70
2022/03/29 10:01:46;;;;;;;0.85;0.68;;;;;;;21.39;24.85;97389.91;5053574;28;20044;-69
2022/03/29 10:04:14;;;;;;;1.20;0.70;;;;;;;21.42;24.80;97392.91;5052865;28;20060;-67
2022/03/29 10:06:40;;;;;;;3.13;0.63;;;;;;;21.45;24.76;97387.06;5053082;28;20119;-68
2022/03/29 10:11:52;;;;;;;0.90;0.55;;;;;;;21.48;24.56;97383.03;5044743;28;20506;-67
2022/03/29 10:14:21;;;;;;;3.90;1.10;;;;;;;21.49;24.67;97390.84;5052359;28;20025;-65
2022/03/29 10:16:48;;;;;;;0.90;0.75;;;;;;;21.48;24.67;97391.13;5052176;28;20040;-66
2022/03/29 10:19:16;;;;;;;2.17;0.77;;;;;;;21.51;24.72;97393.31;5052252;28;20036;-68
2022/03/29 10:21:43;;;;;;;0.93;0.60;;;;;;;21.53;24.54;97395.75;5050491;28;20033;-69
2022/03/29 10:24:08;;;;;;;1.15;0.65;;;;;;;21.54;24.60;97387.47;5045552;28;20041;-70
2022/03/29 10:26:34;;;;;;;1.10;0.60;;;;;;;21.55;24.54;97397.13;5052599;28;20045;-69
2022/03/29 10:29:00;;;;;;;2.75;0.90;;;;;;;21.53;24.65;97391.22;5051823;28;20037;-69
2022/03/29 10:31:31;;;;;;;11.25;1.73;;;;;;;21.54;24.53;97400.91;5043918;28;20037;-70
2022/03/29 10:34:14;;;;;;;11.82;1.67;;;;;;;21.49;24.36;97406.19;5052640;28;20495;-67
2022/03/29 10:37:07;;;;;;;2.58;0.98;;;;;;;21.50;24.73;97394.38;5050531;28;20527;-68
2022/03/29 10:39:51;;;;;;;6.18;0.98;;;;;;;21.51;24.72;97396.00;5012900;28;20056;-68
2022/03/29 10:42:24;;;;;;;1.75;0.90;;;;;;;21.52;24.79;97403.03;5048855;28;20496;-70
2022/03/29 10:45:05;;;;;;;2.30;0.90;;;;;;;21.46;24.75;97409.38;5051871;28;20484;-73
2022/03/29 10:47:31;;;;;;;;;;;;;;;20.97;25.09;97405.31;5052037;28;20086;-70
2022/03/29 10:49:57;;;;;;;3.20;0.80;;;;;;;20.68;25.35;97409.84;5052176;28;20295;-68
2022/03/29 10:52:22;;;;;;;1.30;0.73;;;;;;;20.42;25.21;97407.44;5045295;28;20036;-68
2022/03/29 10:54:49;;;;;;;2.22;0.80;;;;;;;20.17;25.66;97412.28;5052268;28;20041;-68
2022/03/29 10:57:27;;;;;;;6.25;0.82;;;;;;;19.86;25.77;97409.69;5052077;28;20035;-68
2022/03/29 11:00:17;;;;;;;4.05;0.70;;;;;;;19.54;26.25;97403.84;5052588;28;20082;-67
2022/03/29 11:03:13;;;;;;;1.75;0.95;;;;;;;19.41;26.15;97404.91;5037694;28;20072;-69
2022/03/29 11:06:05;;;;;;;4.30;0.70;;;;;;;19.25;26.17;97398.31;5052027;28;20116;-69
2022/03/29 11:08:32;;;;;;;1.20;0.70;;;;;;;19.10;26.31;97401.44;5052624;28;20036;-70
2022/03/29 11:10:58;;;;;;;0.90;0.60;;;;;;;19.07;26.35;97394.66;5051803;28;20041;-69
2022/03/29 11:13:32;;;;;;;1.50;0.90;;;;;;;18.96;26.50;97404.31;5052337;28;20028;-69
2022/03/29 11:16:02;;;;;;;1.10;0.80;;;;;;;18.92;26.45;97400.41;5036398;28;20025;-69
2022/03/29 11:18:30;;;;;;;1.27;0.70;;;;;;;18.85;26.45;97400.50;5032365;28;20060;-69
2022/03/29 11:21:02;;;;;;;1.77;1.13;;;;;;;18.76;26.36;97391.97;5032599;28;20064;-69
2022/03/29 11:23:41;;;;;;;1.58;0.90;;;;;;;18.70;26.39;97400.88;5031948;28;20053;-69
2022/03/29 11:26:10;;;;;;;1.77;0.80;;;;;;;18.65;26.46;97407.97;5032190;28;20037;-69
2022/03/29 11:28:37;;;;;;;2.60;0.80;;;;;;;18.60;26.53;97414.81;5032212;28;20029;-69
2022/03/29 11:31:02;;;;;;;0.75;0.57;;;;;;;18.56;26.76;97418.19;5032209;28;20037;-69
2022/03/29 11:33:33;;;;;;;2.45;0.82;;;;;;;18.50;26.72;97417.22;5032111;28;20095;-69
2022/03/29 11:36:00;;;;;;;2.78;0.90;;;;;;;18.39;26.56;97434.84;5032535;28;20056;-69
2022/03/29 11:38:26;;;;;;;1.67;0.80;;;;;;;18.32;26.56;97426.06;5032362;28;20044;-69
2022/03/29 11:40:51;;;;;;;1.20;0.80;;;;;;;18.30;26.63;97426.31;5032504;28;20033;-69
2022/03/29 11:43:22;;;;;;;2.47;0.70;;;;;;;18.26;26.53;97427.78;5032357;28;20049;-69
2022/03/29 11:45:48;;;;;;;1.90;0.77;;;;;;;18.18;26.76;97436.09;5032424;28;20049;-69
2022/03/29 11:48:20;;;;;;;3.85;1.00;;;;;;;18.09;26.74;97432.88;5032233;28;20038;-69